sensor_id;sensor_type;location;lat;lon;timestamp;P1;durP1;ratioP1;P2;durP2;ratioP2
69953;SDS011;57276;51.364;12.376;2023-02-12T00:00:48;37.28;;;13.93;;
69953;SDS011;57276;51.364;12.376;2023-02-12T00:06:50;38.07;;;14.50;;
69953;SDS011;57276;51.364;12.376;2023-02-12T00:12:54;38.47;;;15.57;;
69953;SDS011;57276;51.364;12.376;2023-02-12T00:18:56;41.67;;;13.63;;
69953;SDS011;57276;51.364;12.376;2023-02-12T00:24:58;36.80;;;13.73;;
69953;SDS011;57276;51.364;12.376;2023-02-12T00:31:10;37.30;;;14.05;;
69953;SDS011;57276;51.364;12.376;2023-02-12T00:37:12;33.60;;;13.23;;
69953;SDS011;57276;51.364;12.376;2023-02-12T00:43:13;34.60;;;13.23;;
69953;SDS011;57276;51.364;12.376;2023-02-12T00:49:15;33.58;;;13.55;;
69953;SDS011;57276;51.364;12.376;2023-02-12T00:55:16;32.17;;;12.67;;
69953;SDS011;57276;51.364;12.376;2023-02-12T01:01:18;33.45;;;12.02;;
69953;SDS011;57276;51.364;12.376;2023-02-12T01:07:20;35.67;;;13.70;;
69953;SDS011;57276;51.364;12.376;2023-02-12T01:13:23;32.38;;;12.43;;
69953;SDS011;57276;51.364;12.376;2023-02-12T01:19:26;31.58;;;12.20;;
69953;SDS011;57276;51.364;12.376;2023-02-12T01:25:28;33.20;;;12.27;;
69953;SDS011;57276;51.364;12.376;2023-02-12T01:31:32;32.50;;;12.73;;
69953;SDS011;57276;51.364;12.376;2023-02-12T01:37:35;31.77;;;12.00;;
69953;SDS011;57276;51.364;12.376;2023-02-12T01:43:37;34.00;;;11.95;;
69953;SDS011;57276;51.364;12.376;2023-02-12T01:49:40;32.72;;;12.27;;
69953;SDS011;57276;51.364;12.376;2023-02-12T01:55:41;31.43;;;12.37;;
69953;SDS011;57276;51.364;12.376;2023-02-12T02:01:43;28.40;;;11.80;;
69953;SDS011;57276;51.364;12.376;2023-02-12T02:07:45;30.07;;;11.67;;
69953;SDS011;57276;51.364;12.376;2023-02-12T02:13:47;27.60;;;11.82;;
69953;SDS011;57276;51.364;12.376;2023-02-12T02:26:22;27.93;;;11.10;;
69953;SDS011;57276;51.364;12.376;2023-02-12T02:32:41;27.63;;;10.85;;
69953;SDS011;57276;51.364;12.376;2023-02-12T02:38:47;28.83;;;11.07;;
69953;SDS011;57276;51.364;12.376;2023-02-12T02:51:17;29.55;;;10.52;;
69953;SDS011;57276;51.364;12.376;2023-02-12T02:57:22;26.13;;;11.53;;
69953;SDS011;57276;51.364;12.376;2023-02-12T03:03:26;31.98;;;12.00;;
69953;SDS011;57276;51.364;12.376;2023-02-12T03:15:41;28.98;;;10.93;;
69953;SDS011;57276;51.364;12.376;2023-02-12T03:21:47;27.85;;;10.77;;
69953;SDS011;57276;51.364;12.376;2023-02-12T03:28:03;27.20;;;10.50;;
69953;SDS011;57276;51.364;12.376;2023-02-12T03:34:12;24.60;;;10.45;;
69953;SDS011;57276;51.364;12.376;2023-02-12T03:40:35;26.60;;;10.67;;
69953;SDS011;57276;51.364;12.376;2023-02-12T03:52:40;29.35;;;11.27;;
69953;SDS011;57276;51.364;12.376;2023-02-12T03:58:42;25.80;;;10.67;;
69953;SDS011;57276;51.364;12.376;2023-02-12T04:04:44;26.45;;;10.73;;
69953;SDS011;57276;51.364;12.376;2023-02-12T04:11:03;28.47;;;11.30;;
69953;SDS011;57276;51.364;12.376;2023-02-12T04:17:08;28.92;;;11.07;;
69953;SDS011;57276;51.364;12.376;2023-02-12T04:29:30;25.90;;;10.83;;
69953;SDS011;57276;51.364;12.376;2023-02-12T04:41:54;27.33;;;10.70;;
69953;SDS011;57276;51.364;12.376;2023-02-12T04:47:58;27.40;;;10.85;;
69953;SDS011;57276;51.364;12.376;2023-02-12T04:54:00;31.02;;;11.85;;
69953;SDS011;57276;51.364;12.376;2023-02-12T05:00:02;28.67;;;11.13;;
69953;SDS011;57276;51.364;12.376;2023-02-12T05:06:06;26.30;;;11.02;;
69953;SDS011;57276;51.364;12.376;2023-02-12T05:12:08;26.10;;;11.40;;
69953;SDS011;57276;51.364;12.376;2023-02-12T05:18:10;27.95;;;11.07;;
69953;SDS011;57276;51.364;12.376;2023-02-12T05:24:11;30.52;;;10.77;;
69953;SDS011;57276;51.364;12.376;2023-02-12T05:30:13;29.70;;;11.00;;
69953;SDS011;57276;51.364;12.376;2023-02-12T05:36:16;25.13;;;10.10;;
69953;SDS011;57276;51.364;12.376;2023-02-12T05:42:18;27.83;;;10.73;;
69953;SDS011;57276;51.364;12.376;2023-02-12T05:48:19;29.95;;;10.50;;
69953;SDS011;57276;51.364;12.376;2023-02-12T05:54:21;26.70;;;10.43;;
69953;SDS011;57276;51.364;12.376;2023-02-12T06:00:22;26.40;;;10.93;;
69953;SDS011;57276;51.364;12.376;2023-02-12T06:06:24;24.95;;;9.95;;
69953;SDS011;57276;51.364;12.376;2023-02-12T06:12:26;24.43;;;10.10;;
69953;SDS011;57276;51.364;12.376;2023-02-12T06:18:27;24.90;;;10.45;;
69953;SDS011;57276;51.364;12.376;2023-02-12T06:24:29;26.13;;;10.13;;
69953;SDS011;57276;51.364;12.376;2023-02-12T06:30:32;25.43;;;9.93;;
69953;SDS011;57276;51.364;12.376;2023-02-12T06:36:37;25.58;;;9.63;;
69953;SDS011;57276;51.364;12.376;2023-02-12T06:42:39;24.93;;;9.93;;
69953;SDS011;57276;51.364;12.376;2023-02-12T06:48:40;25.67;;;10.07;;
69953;SDS011;57276;51.364;12.376;2023-02-12T06:54:42;23.73;;;9.90;;
69953;SDS011;57276;51.364;12.376;2023-02-12T07:00:44;25.80;;;10.10;;
69953;SDS011;57276;51.364;12.376;2023-02-12T07:06:45;27.60;;;10.68;;
69953;SDS011;57276;51.364;12.376;2023-02-12T07:12:47;28.13;;;11.10;;
69953;SDS011;57276;51.364;12.376;2023-02-12T07:18:48;26.95;;;9.73;;
69953;SDS011;57276;51.364;12.376;2023-02-12T07:24:50;28.65;;;9.85;;
69953;SDS011;57276;51.364;12.376;2023-02-12T07:30:52;24.13;;;9.47;;
69953;SDS011;57276;51.364;12.376;2023-02-12T07:36:54;28.70;;;10.73;;
69953;SDS011;57276;51.364;12.376;2023-02-12T07:42:55;26.97;;;10.43;;
69953;SDS011;57276;51.364;12.376;2023-02-12T07:48:57;25.65;;;10.30;;
69953;SDS011;57276;51.364;12.376;2023-02-12T07:54:59;26.50;;;10.25;;
69953;SDS011;57276;51.364;12.376;2023-02-12T08:01:09;20.70;;;8.67;;
69953;SDS011;57276;51.364;12.376;2023-02-12T08:07:11;19.17;;;8.55;;
69953;SDS011;57276;51.364;12.376;2023-02-12T08:13:12;21.23;;;8.17;;
69953;SDS011;57276;51.364;12.376;2023-02-12T08:19:14;20.13;;;8.75;;
69953;SDS011;57276;51.364;12.376;2023-02-12T08:25:22;19.25;;;7.85;;
69953;SDS011;57276;51.364;12.376;2023-02-12T08:31:24;18.00;;;8.47;;
69953;SDS011;57276;51.364;12.376;2023-02-12T08:37:26;19.48;;;8.00;;
69953;SDS011;57276;51.364;12.376;2023-02-12T08:43:28;21.37;;;8.67;;
69953;SDS011;57276;51.364;12.376;2023-02-12T08:49:29;18.33;;;8.23;;
69953;SDS011;57276;51.364;12.376;2023-02-12T08:55:31;23.30;;;8.77;;
69953;SDS011;57276;51.364;12.376;2023-02-12T09:01:33;23.57;;;9.50;;
69953;SDS011;57276;51.364;12.376;2023-02-12T09:07:36;24.92;;;9.68;;
69953;SDS011;57276;51.364;12.376;2023-02-12T09:13:37;24.53;;;9.27;;
69953;SDS011;57276;51.364;12.376;2023-02-12T09:19:41;21.98;;;9.45;;
69953;SDS011;57276;51.364;12.376;2023-02-12T09:25:43;21.88;;;9.25;;
69953;SDS011;57276;51.364;12.376;2023-02-12T09:31:45;21.57;;;9.43;;
69953;SDS011;57276;51.364;12.376;2023-02-12T09:37:48;23.33;;;9.68;;
69953;SDS011;57276;51.364;12.376;2023-02-12T09:56:00;23.23;;;10.27;;
69953;SDS011;57276;51.364;12.376;2023-02-12T10:02:05;21.23;;;9.40;;
69953;SDS011;57276;51.364;12.376;2023-02-12T10:08:45;22.33;;;9.20;;
69953;SDS011;57276;51.364;12.376;2023-02-12T10:14:42;21.13;;;9.00;;
69953;SDS011;57276;51.364;12.376;2023-02-12T10:20:50;22.50;;;8.77;;
69953;SDS011;57276;51.364;12.376;2023-02-12T10:26:53;17.90;;;8.15;;
69953;SDS011;57276;51.364;12.376;2023-02-12T10:33:00;24.83;;;8.60;;
69953;SDS011;57276;51.364;12.376;2023-02-12T10:39:05;21.88;;;9.25;;
69953;SDS011;57276;51.364;12.376;2023-02-12T10:45:14;19.87;;;9.00;;
69953;SDS011;57276;51.364;12.376;2023-02-12T10:52:00;21.25;;;8.02;;
69953;SDS011;57276;51.364;12.376;2023-02-12T10:57:41;17.77;;;7.20;;
69953;SDS011;57276;51.364;12.376;2023-02-12T11:03:43;19.80;;;6.93;;
69953;SDS011;57276;51.364;12.376;2023-02-12T11:09:45;17.30;;;6.40;;
69953;SDS011;57276;51.364;12.376;2023-02-12T11:15:47;17.47;;;6.97;;
69953;SDS011;57276;51.364;12.376;2023-02-12T11:21:49;12.55;;;5.80;;
69953;SDS011;57276;51.364;12.376;2023-02-12T11:28:25;14.63;;;5.70;;
69953;SDS011;57276;51.364;12.376;2023-02-12T11:34:19;14.73;;;5.90;;
69953;SDS011;57276;51.364;12.376;2023-02-12T11:40:21;13.65;;;6.13;;
69953;SDS011;57276;51.364;12.376;2023-02-12T11:46:24;13.17;;;5.93;;
69953;SDS011;57276;51.364;12.376;2023-02-12T11:52:27;14.38;;;5.65;;
69953;SDS011;57276;51.364;12.376;2023-02-12T11:58:29;18.60;;;6.13;;
69953;SDS011;57276;51.364;12.376;2023-02-12T12:04:31;15.13;;;5.80;;
69953;SDS011;57276;51.364;12.376;2023-02-12T12:10:35;14.68;;;5.60;;
69953;SDS011;57276;51.364;12.376;2023-02-12T12:16:43;15.90;;;6.57;;
69953;SDS011;57276;51.364;12.376;2023-02-12T12:23:09;20.50;;;7.72;;
69953;SDS011;57276;51.364;12.376;2023-02-12T12:29:16;14.82;;;6.43;;
69953;SDS011;57276;51.364;12.376;2023-02-12T12:35:22;17.60;;;7.23;;
69953;SDS011;57276;51.364;12.376;2023-02-12T12:41:31;19.52;;;8.15;;
69953;SDS011;57276;51.364;12.376;2023-02-12T12:47:51;18.30;;;8.00;;
69953;SDS011;57276;51.364;12.376;2023-02-12T12:54:09;22.80;;;8.80;;
69953;SDS011;57276;51.364;12.376;2023-02-12T13:12:40;24.85;;;7.95;;
69953;SDS011;57276;51.364;12.376;2023-02-12T13:18:47;22.00;;;9.03;;
69953;SDS011;57276;51.364;12.376;2023-02-12T13:30:52;23.17;;;9.57;;
69953;SDS011;57276;51.364;12.376;2023-02-12T13:36:54;21.53;;;8.27;;
69953;SDS011;57276;51.364;12.376;2023-02-12T13:49:16;21.63;;;9.40;;
69953;SDS011;57276;51.364;12.376;2023-02-12T13:55:20;26.02;;;10.23;;
69953;SDS011;57276;51.364;12.376;2023-02-12T14:01:39;23.45;;;9.40;;
69953;SDS011;57276;51.364;12.376;2023-02-12T14:07:44;25.77;;;9.73;;
69953;SDS011;57276;51.364;12.376;2023-02-12T14:13:49;26.30;;;9.90;;
69953;SDS011;57276;51.364;12.376;2023-02-12T14:19:56;25.00;;;9.43;;
69953;SDS011;57276;51.364;12.376;2023-02-12T14:25:59;39.22;;;11.60;;
69953;SDS011;57276;51.364;12.376;2023-02-12T14:32:01;58.00;;;20.10;;
69953;SDS011;57276;51.364;12.376;2023-02-12T14:38:55;26.10;;;9.23;;
69953;SDS011;57276;51.364;12.376;2023-02-12T14:44:37;29.58;;;10.02;;
69953;SDS011;57276;51.364;12.376;2023-02-12T14:50:44;27.57;;;9.23;;
69953;SDS011;57276;51.364;12.376;2023-02-12T14:56:50;23.27;;;9.10;;
69953;SDS011;57276;51.364;12.376;2023-02-12T15:02:58;21.88;;;8.70;;
69953;SDS011;57276;51.364;12.376;2023-02-12T15:09:02;28.03;;;9.40;;
69953;SDS011;57276;51.364;12.376;2023-02-12T15:15:14;23.88;;;8.75;;
69953;SDS011;57276;51.364;12.376;2023-02-12T15:21:26;25.20;;;8.63;;
69953;SDS011;57276;51.364;12.376;2023-02-12T15:27:28;22.73;;;8.57;;
69953;SDS011;57276;51.364;12.376;2023-02-12T15:33:30;26.60;;;8.82;;
69953;SDS011;57276;51.364;12.376;2023-02-12T15:39:36;24.57;;;9.27;;
69953;SDS011;57276;51.364;12.376;2023-02-12T15:45:40;27.25;;;9.32;;
69953;SDS011;57276;51.364;12.376;2023-02-12T15:51:49;28.20;;;9.63;;
69953;SDS011;57276;51.364;12.376;2023-02-12T15:57:52;26.67;;;8.38;;
69953;SDS011;57276;51.364;12.376;2023-02-12T16:03:58;27.60;;;9.90;;
69953;SDS011;57276;51.364;12.376;2023-02-12T16:10:00;33.50;;;13.27;;
69953;SDS011;57276;51.364;12.376;2023-02-12T16:16:03;30.33;;;10.98;;
69953;SDS011;57276;51.364;12.376;2023-02-12T16:22:12;26.80;;;9.93;;
69953;SDS011;57276;51.364;12.376;2023-02-12T16:28:16;31.73;;;10.93;;
69953;SDS011;57276;51.364;12.376;2023-02-12T16:34:26;34.25;;;11.00;;
69953;SDS011;57276;51.364;12.376;2023-02-12T16:40:29;32.63;;;10.90;;
69953;SDS011;57276;51.364;12.376;2023-02-12T16:46:31;30.92;;;10.75;;
69953;SDS011;57276;51.364;12.376;2023-02-12T16:52:35;32.60;;;11.33;;
69953;SDS011;57276;51.364;12.376;2023-02-12T16:58:38;33.72;;;11.40;;
69953;SDS011;57276;51.364;12.376;2023-02-12T17:04:40;36.85;;;12.75;;
69953;SDS011;57276;51.364;12.376;2023-02-12T17:10:42;32.57;;;12.43;;
69953;SDS011;57276;51.364;12.376;2023-02-12T17:16:45;32.53;;;12.38;;
69953;SDS011;57276;51.364;12.376;2023-02-12T17:22:48;34.17;;;12.33;;
69953;SDS011;57276;51.364;12.376;2023-02-12T17:28:50;33.45;;;12.50;;
69953;SDS011;57276;51.364;12.376;2023-02-12T17:34:52;36.83;;;13.50;;
69953;SDS011;57276;51.364;12.376;2023-02-12T17:40:53;34.70;;;13.73;;
69953;SDS011;57276;51.364;12.376;2023-02-12T17:46:56;34.90;;;13.07;;
69953;SDS011;57276;51.364;12.376;2023-02-12T17:52:59;34.00;;;13.57;;
69953;SDS011;57276;51.364;12.376;2023-02-12T17:59:02;37.20;;;14.65;;
69953;SDS011;57276;51.364;12.376;2023-02-12T18:05:04;40.47;;;14.45;;
69953;SDS011;57276;51.364;12.376;2023-02-12T18:11:06;35.83;;;14.90;;
69953;SDS011;57276;51.364;12.376;2023-02-12T18:17:09;34.15;;;13.45;;
69953;SDS011;57276;51.364;12.376;2023-02-12T18:23:11;29.77;;;12.63;;
69953;SDS011;57276;51.364;12.376;2023-02-12T18:29:12;26.63;;;11.10;;
69953;SDS011;57276;51.364;12.376;2023-02-12T18:35:15;34.20;;;13.13;;
69953;SDS011;57276;51.364;12.376;2023-02-12T18:41:21;27.40;;;11.60;;
69953;SDS011;57276;51.364;12.376;2023-02-12T18:47:23;31.08;;;12.23;;
69953;SDS011;57276;51.364;12.376;2023-02-12T18:53:25;32.20;;;12.23;;
69953;SDS011;57276;51.364;12.376;2023-02-12T18:59:27;32.00;;;11.93;;
69953;SDS011;57276;51.364;12.376;2023-02-12T19:05:30;28.35;;;11.43;;
69953;SDS011;57276;51.364;12.376;2023-02-12T19:11:32;27.17;;;11.47;;
69953;SDS011;57276;51.364;12.376;2023-02-12T19:17:34;26.95;;;12.02;;
69953;SDS011;57276;51.364;12.376;2023-02-12T19:23:37;25.70;;;10.80;;
69953;SDS011;57276;51.364;12.376;2023-02-12T19:29:39;27.88;;;11.30;;
69953;SDS011;57276;51.364;12.376;2023-02-12T19:35:41;25.00;;;11.55;;
69953;SDS011;57276;51.364;12.376;2023-02-12T19:41:44;24.27;;;11.93;;
69953;SDS011;57276;51.364;12.376;2023-02-12T19:47:47;28.35;;;12.18;;
69953;SDS011;57276;51.364;12.376;2023-02-12T19:53:52;23.80;;;11.20;;
69953;SDS011;57276;51.364;12.376;2023-02-12T19:59:55;26.45;;;11.73;;
69953;SDS011;57276;51.364;12.376;2023-02-12T20:06:04;28.85;;;12.68;;
69953;SDS011;57276;51.364;12.376;2023-02-12T20:12:07;26.90;;;11.87;;
69953;SDS011;57276;51.364;12.376;2023-02-12T20:18:11;25.63;;;10.90;;
69953;SDS011;57276;51.364;12.376;2023-02-12T20:24:13;27.47;;;12.67;;
69953;SDS011;57276;51.364;12.376;2023-02-12T20:30:16;28.52;;;11.90;;
69953;SDS011;57276;51.364;12.376;2023-02-12T20:36:19;23.00;;;11.48;;
69953;SDS011;57276;51.364;12.376;2023-02-12T20:42:21;23.73;;;10.70;;
69953;SDS011;57276;51.364;12.376;2023-02-12T20:48:23;21.15;;;10.48;;
69953;SDS011;57276;51.364;12.376;2023-02-12T20:54:27;21.33;;;9.83;;
69953;SDS011;57276;51.364;12.376;2023-02-12T21:00:29;18.67;;;9.43;;
69953;SDS011;57276;51.364;12.376;2023-02-12T21:06:31;17.35;;;9.50;;
69953;SDS011;57276;51.364;12.376;2023-02-12T21:12:32;17.10;;;8.73;;
69953;SDS011;57276;51.364;12.376;2023-02-12T21:18:34;21.00;;;10.40;;
69953;SDS011;57276;51.364;12.376;2023-02-12T21:24:36;18.53;;;9.03;;
69953;SDS011;57276;51.364;12.376;2023-02-12T21:30:38;20.48;;;9.65;;
69953;SDS011;57276;51.364;12.376;2023-02-12T21:36:40;18.05;;;9.10;;
69953;SDS011;57276;51.364;12.376;2023-02-12T21:42:42;17.83;;;9.00;;
69953;SDS011;57276;51.364;12.376;2023-02-12T21:48:43;19.15;;;8.82;;
69953;SDS011;57276;51.364;12.376;2023-02-12T21:54:45;20.00;;;9.20;;
69953;SDS011;57276;51.364;12.376;2023-02-12T22:00:47;18.30;;;8.70;;
69953;SDS011;57276;51.364;12.376;2023-02-12T22:06:50;22.02;;;9.15;;
69953;SDS011;57276;51.364;12.376;2023-02-12T22:12:53;19.07;;;8.93;;
69953;SDS011;57276;51.364;12.376;2023-02-12T22:18:56;17.45;;;8.57;;
69953;SDS011;57276;51.364;12.376;2023-02-12T22:24:59;19.97;;;9.67;;
69953;SDS011;57276;51.364;12.376;2023-02-12T22:31:03;20.52;;;9.27;;
69953;SDS011;57276;51.364;12.376;2023-02-12T22:37:05;17.33;;;8.90;;
69953;SDS011;57276;51.364;12.376;2023-02-12T22:43:06;18.07;;;9.03;;
69953;SDS011;57276;51.364;12.376;2023-02-12T22:49:08;18.50;;;9.02;;
69953;SDS011;57276;51.364;12.376;2023-02-12T22:55:10;18.50;;;9.17;;
69953;SDS011;57276;51.364;12.376;2023-02-12T23:01:16;18.65;;;8.32;;
69953;SDS011;57276;51.364;12.376;2023-02-12T23:07:18;19.63;;;8.85;;
69953;SDS011;57276;51.364;12.376;2023-02-12T23:13:19;20.93;;;9.00;;
69953;SDS011;57276;51.364;12.376;2023-02-12T23:19:30;22.05;;;8.73;;
69953;SDS011;57276;51.364;12.376;2023-02-12T23:25:32;19.03;;;8.83;;
69953;SDS011;57276;51.364;12.376;2023-02-12T23:31:33;18.20;;;8.30;;
69953;SDS011;57276;51.364;12.376;2023-02-12T23:37:35;19.92;;;8.85;;
69953;SDS011;57276;51.364;12.376;2023-02-12T23:43:36;22.23;;;8.83;;
69953;SDS011;57276;51.364;12.376;2023-02-12T23:49:38;20.52;;;8.98;;
69953;SDS011;57276;51.364;12.376;2023-02-12T23:55:39;18.90;;;8.27;;
